Terminal Aerodrome Forecast
Issued by NWS

Home | Current Version | Previous Version | Text Only | Print | Product List | Glossary On
Versions: 1 2 3 4 5 6 7 8 9 10 11 12
000
FTUS45 KABQ 192300
TAFGUP
TAF
KGUP 192323Z 2000/2024 30014G20KT P6SM FEW100
     FM200200 VRB03KT P6SM SCT110
     FM201500 24007KT P6SM SCT120
     FM201800 24011G19KT P6SM SCT150=

USA.gov is the U.S. government's official web portal to all federal, state and local government web resources and services.